Time;durP1;ratioP1;P1;durP2;ratioP2;P2;SDS_P1;SDS_P2;PMS_P1;PMS_P2;Temp;Humidity;BMP_temperature;BMP_pressure;BME280_temperature;BME280_humidity;BME280_pressure;Samples;Min_cycle;Max_cycle;Signal;HPM_P1;HPM_P2
2022/01/07 00:00:16;;;;;;;7.97;2.77;;;;;;;;;;5011312;28;20542;-66
2022/01/07 00:02:43;;;;;;;10.30;2.23;;;;;;;;;;5011088;28;21028;-66
2022/01/07 00:05:10;;;;;;;6.80;2.70;;;;;;;;;;5010924;28;20430;-66
2022/01/07 00:07:37;;;;;;;5.37;2.13;;;;;;;;;;4993739;28;20443;-66
2022/01/07 00:10:04;;;;;;;6.53;1.90;;;;;;;;;;5011050;28;20427;-66
2022/01/07 00:12:31;;;;;;;6.00;2.20;;;;;;;;;;5011067;28;20435;-67
2022/01/07 00:14:57;;;;;;;4.87;1.57;;;;;;;;;;5010940;28;21012;-66
2022/01/07 00:17:24;;;;;;;4.93;1.80;;;;;;;;;;5011174;28;20430;-67
2022/01/07 00:19:51;;;;;;;8.43;2.13;;;;;;;;;;5010956;28;20424;-66
2022/01/07 00:22:17;;;;;;;7.03;1.83;;;;;;;;;;5011160;28;20518;-66
2022/01/07 00:24:44;;;;;;;4.23;1.70;;;;;;;;;;5010930;28;20520;-67
2022/01/07 00:27:11;;;;;;;6.07;1.97;;;;;;;;;;5010825;28;20435;-67
2022/01/07 00:29:50;;;;;;;2.83;1.77;;;;;;;;;;5010807;28;20433;-66
2022/01/07 00:32:16;;;;;;;3.63;1.07;;;;;;;;;;5010804;28;20454;-67
2022/01/07 00:34:43;;;;;;;2.77;1.47;;;;;;;;;;5010950;28;20427;-67
2022/01/07 00:37:10;;;;;;;4.73;2.20;;;;;;;;;;5010839;28;20440;-66
2022/01/07 00:39:37;;;;;;;4.87;2.10;;;;;;;;;;5010801;28;20466;-67
2022/01/07 00:42:04;;;;;;;7.40;1.70;;;;;;;;;;5010331;28;20471;-67
2022/01/07 00:44:31;;;;;;;6.23;1.77;;;;;;;;;;5010523;28;20517;-67
2022/01/07 00:46:57;;;;;;;6.27;2.20;;;;;;;;;;5010654;28;20497;-67
2022/01/07 00:49:24;;;;;;;5.73;2.30;;;;;;;;;;5010535;28;20435;-67
2022/01/07 00:51:51;;;;;;;6.03;2.20;;;;;;;;;;5010181;28;20435;-67
2022/01/07 00:54:17;;;;;;;4.80;1.77;;;;;;;;;;4993198;28;20542;-66
2022/01/07 00:56:45;;;;;;;9.07;2.40;;;;;;;;;;5010391;28;20501;-66
2022/01/07 00:59:12;;;;;;;9.30;2.50;;;;;;;;;;5010253;28;20469;-66
2022/01/07 01:01:38;;;;;;;3.77;1.63;;;;;;;;;;5010345;28;20438;-66
2022/01/07 01:40:03;;;;;;;3.87;1.10;;;;;;;;;;5009895;28;20557;-66
2022/01/07 01:42:30;;;;;;;4.40;1.80;;;;;;;;;;4992356;28;20463;-66
2022/01/07 01:44:57;;;;;;;3.07;1.20;;;;;;;;;;5009759;28;21063;-66
2022/01/07 01:47:23;;;;;;;5.43;1.90;;;;;;;;;;5010009;28;20433;-66
2022/01/07 01:49:50;;;;;;;6.03;1.70;;;;;;;;;;4992228;28;20469;-66
2022/01/07 01:52:16;;;;;;;4.57;1.80;;;;;;;;;;5009938;28;20434;-66
2022/01/07 01:54:43;;;;;;;4.40;2.00;;;;;;;;;;5009831;28;20435;-66
2022/01/07 01:57:10;;;;;;;2.27;1.30;;;;;;;;;;5009720;28;20438;-66
2022/01/07 01:59:37;;;;;;;4.37;1.30;;;;;;;;;;5009858;28;20996;-66
2022/01/07 02:02:04;;;;;;;5.23;1.83;;;;;;;;;;5009742;28;20427;-66
2022/01/07 02:04:31;;;;;;;2.23;1.00;;;;;;;;;;5013128;28;20478;-66
2022/01/07 02:06:58;;;;;;;5.57;1.93;;;;;;;;;;5013599;28;20439;-66
2022/01/07 02:09:33;;;;;;;8.27;1.63;;;;;;;;;;5013416;28;20461;-66
2022/01/07 02:12:02;;;;;;;4.20;1.43;;;;;;;;;;4980947;28;21020;-66
2022/01/07 02:14:29;;;;;;;8.83;2.07;;;;;;;;;;5013454;28;20529;-66
2022/01/07 02:16:55;;;;;;;4.67;1.70;;;;;;;;;;5013340;28;21103;-66
2022/01/07 02:19:22;;;;;;;6.37;2.30;;;;;;;;;;5010357;28;20492;-66
2022/01/07 02:21:48;;;;;;;5.93;1.87;;;;;;;;;;4995705;28;20449;-66
2022/01/07 02:24:15;;;;;;;5.13;2.00;;;;;;;;;;5013163;28;20494;-66
2022/01/07 02:26:41;;;;;;;8.63;2.40;;;;;;;;;;5013139;28;20802;-66
2022/01/07 02:29:08;;;;;;;8.53;2.23;;;;;;;;;;5013045;28;21016;-66
2022/01/07 02:31:35;;;;;;;8.80;2.03;;;;;;;;;;5013021;28;20439;-66
2022/01/07 02:34:01;;;;;;;6.00;1.87;;;;;;;;;;5013126;28;20431;-66
2022/01/07 02:36:28;;;;;;;6.37;1.67;;;;;;;;;;5012893;28;20435;-66
2022/01/07 02:38:54;;;;;;;6.63;1.90;;;;;;;;;;4995527;28;20843;-66
2022/01/07 02:41:23;;;;;;;7.50;1.90;;;;;;;;;;5012821;28;20984;-66
2022/01/07 02:43:49;;;;;;;7.30;1.97;;;;;;;;;;4995097;28;20494;-66
2022/01/07 02:46:16;;;;;;;4.43;1.50;;;;;;;;;;5012842;28;20441;-66
2022/01/07 02:48:42;;;;;;;7.10;1.20;;;;;;;;;;5012767;28;20437;-66
2022/01/07 02:51:09;;;;;;;5.47;1.80;;;;;;;;;;5012849;28;20435;-66
2022/01/07 02:53:36;;;;;;;6.80;1.73;;;;;;;;;;5012585;28;20427;-66
2022/01/07 02:56:02;;;;;;;3.53;1.03;;;;;;;;;;5012736;28;20875;-66
2022/01/07 02:58:29;;;;;;;3.70;1.57;;;;;;;;;;5012647;28;21143;-65
2022/01/07 03:00:56;;;;;;;6.23;2.23;;;;;;;;;;4994884;28;20950;-66
2022/01/07 03:03:23;;;;;;;8.13;1.80;;;;;;;;;;5005757;28;20500;-66
2022/01/07 03:05:49;;;;;;;6.20;1.90;;;;;;;;;;5013475;28;20431;-66
2022/01/07 03:08:16;;;;;;;3.73;1.00;;;;;;;;;;5013525;28;20853;-66
2022/01/07 03:10:43;;;;;;;5.27;1.83;;;;;;;;;;5013313;28;20853;-66
2022/01/07 03:13:09;;;;;;;4.83;1.67;;;;;;;;;;5012026;28;20427;-65
2022/01/07 03:15:37;;;;;;;6.40;1.63;;;;;;;;;;5012267;28;20518;-66
2022/01/07 03:18:07;;;;;;;4.13;1.70;;;;;;;;;;5012306;28;20430;-65
2022/01/07 03:20:38;;;;;;;9.07;1.70;;;;;;;;;;5012086;28;20467;-65
2022/01/07 03:23:06;;;;;;;4.23;1.57;;;;;;;;;;5012205;28;20845;-65
2022/01/07 03:25:32;;;;;;;5.23;1.77;;;;;;;;;;5011769;28;20507;-65
2022/01/07 03:27:59;;;;;;;6.77;1.77;;;;;;;;;;5011974;28;20432;-65
2022/01/07 03:30:25;;;;;;;3.20;1.13;;;;;;;;;;5012065;28;20430;-65
2022/01/07 03:32:52;;;;;;;6.10;1.27;;;;;;;;;;5011722;28;20439;-65
2022/01/07 03:35:18;;;;;;;4.63;1.73;;;;;;;;;;5011911;28;20423;-66
2022/01/07 03:37:45;;;;;;;2.80;1.53;;;;;;;;;;5011996;28;20455;-65
2022/01/07 03:40:12;;;;;;;2.87;1.43;;;;;;;;;;5011644;28;20423;-65
2022/01/07 03:42:39;;;;;;;7.43;2.27;;;;;;;;;;5011546;28;20470;-65
2022/01/07 03:45:05;;;;;;;1.87;0.73;;;;;;;;;;5011764;28;20470;-65
2022/01/07 03:47:32;;;;;;;4.23;1.73;;;;;;;;;;4994172;28;20987;-65
2022/01/07 03:49:59;;;;;;;5.03;2.00;;;;;;;;;;5011647;28;20458;-65
2022/01/07 03:52:25;;;;;;;5.07;1.90;;;;;;;;;;5011561;28;20439;-65
2022/01/07 03:54:52;;;;;;;8.77;2.67;;;;;;;;;;5011461;28;20420;-65
2022/01/07 03:57:18;;;;;;;5.13;1.97;;;;;;;;;;5011548;28;20433;-65
2022/01/07 03:59:45;;;;;;;7.83;2.67;;;;;;;;;;5011271;28;20435;-65
2022/01/07 04:02:12;;;;;;;4.47;2.17;;;;;;;;;;5026653;28;20435;-66
2022/01/07 04:04:38;;;;;;;6.80;2.40;;;;;;;;;;5011262;28;20474;-65
2022/01/07 04:07:05;;;;;;;8.30;3.00;;;;;;;;;;5011357;28;20486;-65
2022/01/07 04:09:31;;;;;;;12.60;3.37;;;;;;;;;;5011179;28;20441;-65
2022/01/07 04:11:59;;;;;;;7.67;3.30;;;;;;;;;;5011417;28;20435;-65
2022/01/07 04:14:26;;;;;;;13.70;3.03;;;;;;;;;;5011139;28;20423;-65
2022/01/07 04:16:53;;;;;;;9.10;3.07;;;;;;;;;;5011166;28;20974;-65
2022/01/07 04:19:19;;;;;;;10.73;3.70;;;;;;;;;;5011304;28;20435;-65
2022/01/07 04:21:47;;;;;;;12.00;4.63;;;;;;;;;;5011285;28;20442;-65
2022/01/07 04:24:14;;;;;;;12.30;4.43;;;;;;;;;;5010900;28;20490;-65
2022/01/07 04:26:41;;;;;;;10.73;3.70;;;;;;;;;;5010536;28;20427;-65
2022/01/07 04:29:07;;;;;;;9.53;3.93;;;;;;;;;;4993683;28;20493;-65
2022/01/07 04:31:34;;;;;;;12.40;3.97;;;;;;;;;;5010921;28;20435;-65
2022/01/07 04:34:00;;;;;;;6.03;2.03;;;;;;;;;;5011194;28;20534;-66
2022/01/07 04:36:27;;;;;;;5.80;2.87;;;;;;;;;;5026013;28;20439;-66
2022/01/07 04:38:53;;;;;;;5.17;2.10;;;;;;;;;;5010910;28;20454;-65
2022/01/07 04:41:20;;;;;;;7.47;2.03;;;;;;;;;;5010633;28;20463;-65
2022/01/07 04:43:48;;;;;;;20.50;4.17;;;;;;;;;;5010873;28;20430;-65
2022/01/07 04:46:15;;;;;;;17.83;5.23;;;;;;;;;;5010710;28;20431;-65
2022/01/07 04:48:42;;;;;;;11.50;4.07;;;;;;;;;;5010582;28;20484;-65
2022/01/07 04:51:10;;;;;;;14.20;5.37;;;;;;;;;;5010222;28;20468;-65
2022/01/07 04:53:36;;;;;;;21.57;5.80;;;;;;;;;;5009928;28;20432;-65
2022/01/07 04:56:03;;;;;;;15.23;5.87;;;;;;;;;;5010388;28;20797;-65
2022/01/07 04:58:29;;;;;;;14.90;4.60;;;;;;;;;;5010145;28;21291;-65
2022/01/07 05:00:56;;;;;;;19.07;5.50;;;;;;;;;;5010246;28;21002;-65
2022/01/07 05:03:22;;;;;;;16.23;5.53;;;;;;;;;;5010194;28;20458;-65
2022/01/07 05:06:00;;;;;;;21.30;6.00;;;;;;;;;;5009145;28;20491;-66
2022/01/07 05:08:27;;;;;;;8.30;3.80;;;;;;;;;;5010090;28;20530;-67
2022/01/07 05:10:54;;;;;;;13.93;5.07;;;;;;;;;;5010667;28;20525;-64
2022/01/07 05:13:20;;;;;;;17.07;5.60;;;;;;;;;;5009777;28;20806;-64
2022/01/07 05:15:47;;;;;;;13.10;3.97;;;;;;;;;;5011092;28;20454;-65
2022/01/07 05:18:14;;;;;;;19.20;6.63;;;;;;;;;;5010918;28;20439;-65
2022/01/07 05:20:41;;;;;;;21.60;6.10;;;;;;;;;;5011067;28;20435;-65
2022/01/07 05:23:07;;;;;;;7.03;3.50;;;;;;;;;;5010896;28;20879;-65
2022/01/07 05:25:34;;;;;;;19.77;5.80;;;;;;;;;;5010774;28;20474;-65
2022/01/07 05:28:01;;;;;;;13.33;4.87;;;;;;;;;;5011133;28;20440;-66
2022/01/07 05:30:27;;;;;;;13.63;5.27;;;;;;;;;;5010934;28;20431;-65
2022/01/07 05:32:54;;;;;;;15.47;4.93;;;;;;;;;;5010922;28;21040;-65
2022/01/07 05:35:20;;;;;;;6.50;2.77;;;;;;;;;;5010902;28;20477;-63
2022/01/07 05:37:47;;;;;;;21.43;5.70;;;;;;;;;;5013468;28;20430;-64
2022/01/07 05:40:14;;;;;;;11.87;4.30;;;;;;;;;;5014543;28;20462;-66
2022/01/07 05:42:40;;;;;;;13.63;2.83;;;;;;;;;;5014686;28;20459;-65
2022/01/07 05:45:07;;;;;;;8.03;3.13;;;;;;;;;;5014720;28;20513;-65
2022/01/07 05:47:34;;;;;;;5.43;2.53;;;;;;;;;;5014688;28;20448;-64
2022/01/07 05:50:00;;;;;;;3.17;1.87;;;;;;;;;;5014788;28;20443;-64
2022/01/07 05:52:27;;;;;;;10.87;3.90;;;;;;;;;;5014648;28;20446;-64
2022/01/07 05:54:54;;;;;;;14.30;3.33;;;;;;;;;;5014557;28;20419;-64
2022/01/07 05:57:20;;;;;;;8.27;3.40;;;;;;;;;;5014758;28;20434;-65
2022/01/07 05:59:47;;;;;;;8.20;3.30;;;;;;;;;;5014518;28;20522;-64
2022/01/07 06:02:13;;;;;;;12.13;4.57;;;;;;;;;;5013722;28;20470;-65
2022/01/07 06:04:44;;;;;;;5.93;2.43;;;;;;;;;;5014171;28;20825;-64
2022/01/07 06:07:11;;;;;;;13.83;5.07;;;;;;;;;;5014202;28;20430;-65
2022/01/07 06:09:37;;;;;;;6.40;2.93;;;;;;;;;;5014268;28;20442;-65
2022/01/07 06:12:05;;;;;;;13.40;4.73;;;;;;;;;;5014324;28;20489;-65
2022/01/07 06:14:32;;;;;;;10.23;4.20;;;;;;;;;;5014037;28;20441;-65
2022/01/07 06:16:58;;;;;;;9.97;3.67;;;;;;;;;;4996955;28;20485;-65
2022/01/07 06:19:25;;;;;;;6.80;2.63;;;;;;;;;;5009741;28;20447;-65
2022/01/07 06:21:51;;;;;;;13.90;4.73;;;;;;;;;;4997252;28;20912;-65
2022/01/07 06:24:18;;;;;;;15.50;4.60;;;;;;;;;;5006504;28;20537;-65
2022/01/07 06:26:44;;;;;;;9.17;3.40;;;;;;;;;;5007056;28;20996;-65
2022/01/07 06:29:11;;;;;;;10.40;4.17;;;;;;;;;;5007176;28;20449;-65
2022/01/07 06:31:37;;;;;;;12.50;4.00;;;;;;;;;;5006111;28;20446;-65
2022/01/07 06:34:04;;;;;;;7.80;3.00;;;;;;;;;;5006756;28;20439;-65
2022/01/07 06:36:31;;;;;;;9.20;4.07;;;;;;;;;;5006991;28;20443;-65
2022/01/07 06:38:58;;;;;;;6.63;3.90;;;;;;;;;;5003249;28;20447;-66
2022/01/07 06:41:25;;;;;;;7.87;2.70;;;;;;;;;;5004818;28;20505;-66
2022/01/07 06:43:51;;;;;;;12.43;4.63;;;;;;;;;;5005452;28;20533;-66
2022/01/07 06:46:18;;;;;;;14.90;5.20;;;;;;;;;;5004887;28;20486;-65
2022/01/07 06:48:47;;;;;;;12.00;4.10;;;;;;;;;;5005958;28;20529;-66
2022/01/07 06:51:14;;;;;;;9.60;3.60;;;;;;;;;;5007539;28;20431;-64
2022/01/07 06:53:40;;;;;;;12.50;4.13;;;;;;;;;;5006861;28;20447;-64
2022/01/07 06:56:07;;;;;;;16.50;5.17;;;;;;;;;;4997628;28;20464;-64
2022/01/07 06:58:33;;;;;;;7.30;3.00;;;;;;;;;;5013285;28;20444;-66
2022/01/07 07:01:00;;;;;;;12.90;5.33;;;;;;;;;;5016257;28;20497;-64
2022/01/07 07:03:27;;;;;;;10.47;3.80;;;;;;;;;;4995275;28;20839;-66
2022/01/07 07:05:54;;;;;;;5.90;3.07;;;;;;;;;;5000686;28;20479;-65
2022/01/07 07:08:20;;;;;;;13.60;4.17;;;;;;;;;;4993009;28;20446;-65
2022/01/07 07:10:47;;;;;;;16.43;5.70;;;;;;;;;;4992708;28;20436;-65
2022/01/07 07:13:14;;;;;;;9.87;4.73;;;;;;;;;;4992703;28;20424;-65
2022/01/07 07:15:40;;;;;;;9.07;4.07;;;;;;;;;;4992668;28;20776;-65
2022/01/07 07:18:07;;;;;;;10.23;5.43;;;;;;;;;;4992647;28;20440;-65
2022/01/07 07:20:34;;;;;;;21.77;9.53;;;;;;;;;;4992641;28;20456;-65
2022/01/07 07:23:03;;;;;;;7.93;3.87;;;;;;;;;;4975333;28;20439;-67
2022/01/07 07:25:30;;;;;;;19.73;8.87;;;;;;;;;;4992303;28;20472;-66
2022/01/07 07:27:56;;;;;;;9.60;4.13;;;;;;;;;;4992580;28;20436;-67
2022/01/07 07:30:24;;;;;;;19.40;7.77;;;;;;;;;;4992325;28;20448;-66
2022/01/07 07:32:53;;;;;;;15.90;6.57;;;;;;;;;;4992232;28;20459;-67
2022/01/07 07:37:50;;;;;;;26.57;9.47;;;;;;;;;;4992281;28;20440;-65
2022/01/07 07:40:16;;;;;;;16.93;7.13;;;;;;;;;;4992229;28;20514;-65
2022/01/07 07:42:43;;;;;;;22.33;8.33;;;;;;;;;;4992014;28;20971;-65
2022/01/07 07:45:16;;;;;;;15.37;6.40;;;;;;;;;;4990733;28;21006;-67
2022/01/07 07:47:42;;;;;;;17.10;7.07;;;;;;;;;;4992195;28;20439;-66
2022/01/07 07:50:13;;;;;;;12.20;5.17;;;;;;;;;;4991887;28;20428;-65
2022/01/07 07:52:39;;;;;;;21.10;7.73;;;;;;;;;;4992121;28;20432;-65
2022/01/07 07:55:06;;;;;;;21.10;8.97;;;;;;;;;;4991877;28;20436;-66
2022/01/07 07:57:33;;;;;;;42.27;15.13;;;;;;;;;;4991709;28;20424;-65
2022/01/07 07:59:59;;;;;;;32.87;14.00;;;;;;;;;;4991097;28;20443;-66
2022/01/07 08:02:30;;;;;;;24.97;9.93;;;;;;;;;;4991144;28;20432;-66
2022/01/07 08:04:57;;;;;;;26.83;10.97;;;;;;;;;;5006690;28;20468;-65
2022/01/07 08:07:24;;;;;;;35.20;12.57;;;;;;;;;;4991977;28;20462;-65
2022/01/07 08:09:51;;;;;;;24.90;11.67;;;;;;;;;;4991535;28;20444;-65
2022/01/07 08:12:28;;;;;;;26.90;11.80;;;;;;;;;;4990433;28;20432;-65
2022/01/07 08:17:40;;;;;;;31.10;13.10;;;;;;;;;;4991600;28;20435;-65
2022/01/07 08:20:07;;;;;;;27.70;10.17;;;;;;;;;;4991469;28;20455;-65
2022/01/07 08:22:42;;;;;;;28.47;11.90;;;;;;;;;;5108034;27;20532;-64
2022/01/07 08:25:08;;;;;;;29.60;11.20;;;;;;;;;;5087474;28;20436;-64
2022/01/07 08:27:35;;;;;;;27.03;12.93;;;;;;;;;;5087289;28;20461;-64
2022/01/07 08:30:15;;;;;;;24.80;9.60;;;;;;;;;;5087306;28;20427;-64
2022/01/07 08:35:28;;;;;;;34.63;12.97;;;;;;;;;;5087381;28;20779;-64
2022/01/07 08:37:54;;;;;;;23.43;9.13;;;;;;;;;;5087148;28;20420;-65
2022/01/07 08:40:21;;;;;;;30.27;11.33;;;;;;;;;;5085728;28;20986;-64
2022/01/07 08:42:48;;;;;;;28.60;11.27;;;;;;;;;;5071858;28;20445;-65
2022/01/07 08:45:15;;;;;;;18.93;8.57;;;;;;;;;;5075640;28;20440;-66
2022/01/07 08:47:41;;;;;;;27.73;12.40;;;;;;;;;;5066321;28;20441;-64
2022/01/07 08:50:08;;;;;;;27.83;12.43;;;;;;;;;;5081535;28;20518;-64
2022/01/07 08:52:35;;;;;;;27.00;9.57;;;;;;;;;;5086148;28;20467;-64
2022/01/07 08:55:02;;;;;;;31.33;13.13;;;;;;;;;;5079257;28;20606;-64
2022/01/07 08:57:28;;;;;;;32.47;11.63;;;;;;;;;;5066368;28;20478;-64
2022/01/07 08:59:55;;;;;;;29.50;13.10;;;;;;;;;;5066978;28;20428;-64
2022/01/07 09:02:21;;;;;;;39.13;14.47;;;;;;;;;;5066178;28;20492;-64
2022/01/07 09:04:48;;;;;;;21.70;9.20;;;;;;;;;;5065615;28;20437;-64
2022/01/07 09:07:15;;;;;;;32.17;12.73;;;;;;;;;;5065480;28;20494;-65
2022/01/07 09:09:42;;;;;;;21.50;8.20;;;;;;;;;;5072850;28;20453;-65
2022/01/07 09:12:09;;;;;;;29.37;12.20;;;;;;;;;;5069175;28;20434;-65
2022/01/07 09:14:36;;;;;;;36.13;13.57;;;;;;;;;;5084435;28;20467;-65
2022/01/07 09:17:03;;;;;;;24.03;9.83;;;;;;;;;;5065932;28;20429;-64
2022/01/07 09:19:29;;;;;;;23.63;10.97;;;;;;;;;;5063523;28;20443;-64
2022/01/07 09:21:56;;;;;;;30.80;11.00;;;;;;;;;;5093380;28;20474;-65
2022/01/07 09:24:23;;;;;;;22.20;8.87;;;;;;;;;;5093571;28;20450;-64
2022/01/07 09:26:50;;;;;;;12.63;6.83;;;;;;;;;;5110552;28;20448;-64
2022/01/07 09:29:17;;;;;;;19.00;8.97;;;;;;;;;;5095524;28;20426;-64
2022/01/07 09:31:44;;;;;;;30.03;12.17;;;;;;;;;;5109598;28;20968;-63
2022/01/07 09:34:10;;;;;;;37.13;14.67;;;;;;;;;;5084767;28;21030;-64
2022/01/07 09:36:53;;;;;;;16.60;7.50;;;;;;;;;;5086403;28;20537;-65
2022/01/07 09:39:20;;;;;;;17.73;8.00;;;;;;;;;;5092582;28;20776;-65
2022/01/07 09:41:46;;;;;;;17.63;6.70;;;;;;;;;;5085533;28;20641;-65
2022/01/07 09:44:13;;;;;;;30.20;13.37;;;;;;;;;;5089262;28;20446;-65
2022/01/07 09:46:40;;;;;;;29.73;11.93;;;;;;;;;;5093205;28;20434;-65
2022/01/07 09:49:06;;;;;;;25.10;10.47;;;;;;;;;;5090899;28;20437;-64
2022/01/07 09:51:34;;;;;;;26.23;11.00;;;;;;;;;;5092819;28;20474;-63
2022/01/07 09:54:04;;;;;;;14.83;7.03;;;;;;;;;;5068410;28;20443;-65
2022/01/07 09:56:31;;;;;;;31.63;14.17;;;;;;;;;;5094478;28;20440;-66
2022/01/07 09:58:58;;;;;;;25.07;10.37;;;;;;;;;;5088398;28;20992;-65
2022/01/07 10:01:26;;;;;;;40.30;14.03;;;;;;;;;;5099543;28;20473;-64
2022/01/07 10:03:53;;;;;;;26.57;9.70;;;;;;;;;;5097443;28;20443;-64
2022/01/07 10:06:23;;;;;;;28.00;12.13;;;;;;;;;;5105424;28;20805;-65
2022/01/07 10:09:01;;;;;;;35.53;13.17;;;;;;;;;;5098616;28;20450;-64
2022/01/07 10:11:27;;;;;;;31.40;13.37;;;;;;;;;;5092820;28;20464;-64
2022/01/07 10:14:13;;;;;;;33.47;12.00;;;;;;;;;;5094335;28;21809;-64
2022/01/07 10:16:53;;;;;;;33.60;13.23;;;;;;;;;;5088281;28;20450;-65
2022/01/07 10:19:36;;;;;;;37.60;14.50;;;;;;;;;;5091613;28;20503;-64
2022/01/07 10:22:08;;;;;;;34.10;14.17;;;;;;;;;;5036922;28;20490;-65
2022/01/07 10:24:56;;;;;;;24.03;10.63;;;;;;;;;;5054385;28;20858;-65
2022/01/07 10:27:26;;;;;;;32.90;12.83;;;;;;;;;;5045266;28;20452;-65
2022/01/07 10:29:53;;;;;;;34.33;12.33;;;;;;;;;;5056629;28;20532;-64
2022/01/07 10:32:20;;;;;;;29.03;11.27;;;;;;;;;;5059077;28;20436;-64
2022/01/07 10:35:00;;;;;;;31.60;12.80;;;;;;;;;;5052155;28;20789;-64
2022/01/07 10:37:27;;;;;;;11.43;4.23;;;;;;;;;;5044975;28;20445;-65
2022/01/07 10:39:53;;;;;;;18.43;8.40;;;;;;;;;;5048819;28;20450;-64
2022/01/07 10:42:24;;;;;;;35.27;14.10;;;;;;;;;;5049695;28;20476;-66
2022/01/07 10:45:01;;;;;;;19.47;8.50;;;;;;;;;;5053177;28;20444;-65
2022/01/07 10:47:28;;;;;;;24.10;10.27;;;;;;;;;;5050163;28;20440;-65
2022/01/07 10:50:13;;;;;;;17.00;7.30;;;;;;;;;;5053374;28;20444;-65
2022/01/07 10:52:40;;;;;;;29.27;12.33;;;;;;;;;;5050251;28;21180;-65
2022/01/07 10:55:19;;;;;;;14.43;6.67;;;;;;;;;;5053700;28;20556;-65
2022/01/07 10:57:49;;;;;;;33.63;12.40;;;;;;;;;;5051321;28;20428;-65
2022/01/07 11:00:16;;;;;;;29.40;11.90;;;;;;;;;;5052189;28;20437;-65
2022/01/07 11:02:43;;;;;;;25.10;10.50;;;;;;;;;;5052662;28;20518;-65
2022/01/07 11:05:10;;;;;;;25.93;12.10;;;;;;;;;;5040989;28;20506;-65
2022/01/07 11:07:37;;;;;;;28.83;12.77;;;;;;;;;;5047604;28;20448;-64
2022/01/07 11:10:05;;;;;;;30.40;11.70;;;;;;;;;;5052371;28;20555;-65
2022/01/07 11:12:32;;;;;;;15.27;7.93;;;;;;;;;;5053128;28;20437;-65
2022/01/07 11:14:59;;;;;;;15.70;6.70;;;;;;;;;;5051734;28;20418;-65
2022/01/07 11:17:27;;;;;;;28.03;12.43;;;;;;;;;;5044533;28;20498;-65
2022/01/07 11:19:54;;;;;;;26.70;8.63;;;;;;;;;;5053159;28;20441;-64
2022/01/07 11:22:22;;;;;;;23.03;10.17;;;;;;;;;;5088952;28;20474;-64
2022/01/07 11:24:51;;;;;;;28.37;11.33;;;;;;;;;;5075022;28;20432;-64
2022/01/07 11:27:20;;;;;;;20.73;9.07;;;;;;;;;;5082390;28;20794;-64
2022/01/07 11:30:01;;;;;;;22.30;8.77;;;;;;;;;;5096874;28;20434;-65
2022/01/07 11:32:54;;;;;;;26.17;11.03;;;;;;;;;;5090689;28;20495;-66
2022/01/07 11:35:23;;;;;;;20.20;7.90;;;;;;;;;;5088051;28;20456;-65
2022/01/07 11:37:50;;;;;;;27.13;11.10;;;;;;;;;;5088357;28;20448;-65
2022/01/07 11:40:37;;;;;;;17.80;9.23;;;;;;;;;;5084748;28;20987;-64
2022/01/07 11:43:04;;;;;;;12.20;5.80;;;;;;;;;;5064151;28;20499;-64
2022/01/07 11:45:34;;;;;;;17.87;7.63;;;;;;;;;;5074272;28;20448;-64
2022/01/07 11:48:11;;;;;;;18.50;8.77;;;;;;;;;;5074088;28;20825;-64
2022/01/07 11:50:56;;;;;;;21.60;9.43;;;;;;;;;;5070456;28;20436;-65
2022/01/07 11:53:23;;;;;;;10.33;5.87;;;;;;;;;;5060806;28;20454;-64
2022/01/07 11:55:50;;;;;;;16.10;5.73;;;;;;;;;;5076494;28;20466;-64
2022/01/07 11:58:16;;;;;;;18.97;8.07;;;;;;;;;;5073962;28;20455;-65
2022/01/07 12:00:51;;;;;;;16.93;7.70;;;;;;;;;;5076716;28;20444;-65
2022/01/07 12:03:36;;;;;;;16.47;6.70;;;;;;;;;;5073198;28;21011;-63
2022/01/07 12:06:25;;;;;;;25.37;7.83;;;;;;;;;;5059610;28;20518;-65
2022/01/07 12:08:58;;;;;;;19.43;8.07;;;;;;;;;;5065383;28;20440;-65
2022/01/07 12:11:41;;;;;;;16.70;6.70;;;;;;;;;;5081600;28;20483;-65
2022/01/07 12:14:19;;;;;;;16.43;6.07;;;;;;;;;;5078785;28;20448;-64
2022/01/07 12:16:46;;;;;;;21.50;10.10;;;;;;;;;;5057073;28;20887;-66
2022/01/07 12:19:19;;;;;;;18.83;7.33;;;;;;;;;;5062803;28;20470;-66
2022/01/07 12:21:47;;;;;;;18.57;8.10;;;;;;;;;;5077472;28;20564;-65
2022/01/07 12:24:15;;;;;;;13.93;6.30;;;;;;;;;;5079239;28;20436;-65
2022/01/07 12:26:41;;;;;;;9.33;4.87;;;;;;;;;;5082973;28;20443;-65
2022/01/07 12:29:14;;;;;;;16.93;7.53;;;;;;;;;;5081614;28;20455;-66
2022/01/07 12:31:50;;;;;;;19.93;8.50;;;;;;;;;;5079927;28;20466;-65
2022/01/07 12:34:27;;;;;;;26.83;8.93;;;;;;;;;;5069813;28;20524;-65
2022/01/07 12:37:00;;;;;;;16.67;7.53;;;;;;;;;;5073388;28;20470;-65
2022/01/07 12:39:31;;;;;;;21.20;8.50;;;;;;;;;;5069193;28;20444;-66
2022/01/07 12:41:58;;;;;;;14.70;5.93;;;;;;;;;;5064134;28;20489;-65
2022/01/07 12:44:25;;;;;;;19.53;8.93;;;;;;;;;;5064880;28;20453;-64
2022/01/07 12:46:53;;;;;;;19.40;7.20;;;;;;;;;;5073690;28;20435;-65
2022/01/07 12:49:38;;;;;;;18.10;7.13;;;;;;;;;;5069130;28;20445;-65
2022/01/07 12:52:09;;;;;;;23.53;7.37;;;;;;;;;;5071522;28;20788;-64
2022/01/07 12:54:35;;;;;;;19.20;7.40;;;;;;;;;;5068660;28;20443;-66
2022/01/07 12:57:02;;;;;;;12.77;5.30;;;;;;;;;;5069169;28;20439;-64
2022/01/07 12:59:30;;;;;;;21.17;7.73;;;;;;;;;;5047969;28;20451;-65
2022/01/07 13:01:57;;;;;;;19.23;7.90;;;;;;;;;;5067274;28;20464;-64
2022/01/07 13:04:25;;;;;;;14.90;6.67;;;;;;;;;;5073483;28;20789;-66
2022/01/07 13:06:55;;;;;;;12.77;5.57;;;;;;;;;;5075048;28;20428;-65
2022/01/07 13:09:26;;;;;;;20.40;6.87;;;;;;;;;;5072780;28;20441;-65
2022/01/07 13:11:56;;;;;;;23.00;7.80;;;;;;;;;;5070377;28;20440;-66
2022/01/07 13:14:26;;;;;;;21.33;7.67;;;;;;;;;;5066551;28;20957;-64
2022/01/07 13:16:57;;;;;;;16.97;6.33;;;;;;;;;;5057955;28;20478;-64
2022/01/07 13:19:24;;;;;;;18.83;7.37;;;;;;;;;;5072473;28;20437;-64
2022/01/07 13:21:51;;;;;;;18.40;7.47;;;;;;;;;;5065000;28;20468;-64
2022/01/07 13:24:22;;;;;;;86.90;27.27;;;;;;;;;;5049743;28;20450;-65
2022/01/07 13:26:56;;;;;;;33.40;12.43;;;;;;;;;;5068900;28;20519;-64
2022/01/07 13:29:23;;;;;;;12.10;5.53;;;;;;;;;;5065942;28;20536;-64
2022/01/07 13:32:01;;;;;;;9.57;3.97;;;;;;;;;;5077108;28;20497;-65
2022/01/07 13:34:28;;;;;;;14.83;6.23;;;;;;;;;;5072056;28;20551;-65
2022/01/07 13:37:10;;;;;;;16.30;7.20;;;;;;;;;;5071537;28;20550;-64
2022/01/07 13:39:44;;;;;;;12.90;5.50;;;;;;;;;;5035731;28;20440;-64
2022/01/07 13:42:12;;;;;;;16.20;6.93;;;;;;;;;;5070633;28;20463;-65
2022/01/07 13:44:49;;;;;;;17.37;6.43;;;;;;;;;;5070487;28;20452;-65
2022/01/07 13:47:34;;;;;;;15.37;6.17;;;;;;;;;;5074402;28;20484;-65
2022/01/07 13:50:05;;;;;;;15.50;7.20;;;;;;;;;;5071284;28;20455;-64
2022/01/07 13:52:33;;;;;;;16.83;7.10;;;;;;;;;;5061018;28;20447;-64
2022/01/07 13:55:00;;;;;;;14.60;7.00;;;;;;;;;;5078509;28;20424;-65
2022/01/07 13:57:31;;;;;;;21.47;6.80;;;;;;;;;;5074181;28;20494;-65
2022/01/07 13:59:58;;;;;;;17.43;7.53;;;;;;;;;;5067995;28;20448;-64
2022/01/07 14:02:31;;;;;;;18.97;7.67;;;;;;;;;;5076508;28;20459;-65
2022/01/07 14:05:01;;;;;;;16.63;7.17;;;;;;;;;;5070653;28;20448;-66
2022/01/07 14:07:29;;;;;;;15.37;6.47;;;;;;;;;;5067386;28;20865;-66
2022/01/07 14:10:14;;;;;;;18.23;6.70;;;;;;;;;;5070329;28;20437;-66
2022/01/07 14:12:50;;;;;;;15.43;7.10;;;;;;;;;;5076657;28;20451;-65
2022/01/07 14:15:27;;;;;;;19.13;6.47;;;;;;;;;;5068980;28;20452;-66
2022/01/07 14:18:06;;;;;;;17.40;7.00;;;;;;;;;;5073578;28;20456;-66
2022/01/07 14:20:56;;;;;;;15.20;5.67;;;;;;;;;;5080136;28;20486;-66
2022/01/07 14:23:29;;;;;;;16.93;6.13;;;;;;;;;;5059106;28;21233;-65
2022/01/07 14:26:02;;;;;;;15.90;6.47;;;;;;;;;;5076890;28;20601;-65
2022/01/07 14:28:29;;;;;;;14.50;6.53;;;;;;;;;;5072585;28;20444;-66
2022/01/07 14:30:56;;;;;;;13.83;6.17;;;;;;;;;;5068575;28;20421;-65
2022/01/07 14:33:28;;;;;;;15.73;6.47;;;;;;;;;;5068576;28;21028;-65
2022/01/07 14:35:55;;;;;;;13.13;5.93;;;;;;;;;;5066464;28;21138;-65
2022/01/07 14:38:22;;;;;;;15.50;5.90;;;;;;;;;;5068599;28;20436;-66
2022/01/07 14:40:48;;;;;;;13.53;5.77;;;;;;;;;;5074460;28;20937;-65
2022/01/07 14:43:15;;;;;;;14.17;6.60;;;;;;;;;;5081357;28;20602;-65
2022/01/07 14:45:42;;;;;;;16.20;6.37;;;;;;;;;;5052092;28;20444;-65
2022/01/07 14:48:09;;;;;;;15.13;6.43;;;;;;;;;;5055851;28;20441;-65
2022/01/07 14:50:36;;;;;;;16.03;7.13;;;;;;;;;;5070839;28;20436;-66
2022/01/07 14:53:02;;;;;;;16.53;7.10;;;;;;;;;;5072993;28;20457;-66
2022/01/07 14:55:38;;;;;;;17.97;6.73;;;;;;;;;;5075155;28;20816;-65
2022/01/07 14:58:05;;;;;;;15.07;6.70;;;;;;;;;;5066720;28;20595;-66
2022/01/07 15:00:32;;;;;;;16.43;6.77;;;;;;;;;;5073286;28;20868;-66
2022/01/07 15:03:00;;;;;;;11.40;5.00;;;;;;;;;;5073321;28;20480;-67
2022/01/07 15:05:27;;;;;;;12.33;4.30;;;;;;;;;;5047703;28;20443;-65
2022/01/07 15:08:12;;;;;;;15.83;5.80;;;;;;;;;;5072851;28;20478;-66
2022/01/07 15:10:38;;;;;;;13.23;5.23;;;;;;;;;;5075627;28;20842;-66
2022/01/07 15:13:06;;;;;;;17.63;6.37;;;;;;;;;;5075415;28;20439;-65
2022/01/07 15:18:18;;;;;;;14.90;6.33;;;;;;;;;;5071328;28;20443;-64
2022/01/07 15:20:44;;;;;;;12.03;5.00;;;;;;;;;;5070971;28;20483;-67
2022/01/07 15:23:11;;;;;;;14.50;5.43;;;;;;;;;;5066073;28;21059;-65
2022/01/07 15:25:38;;;;;;;7.60;3.47;;;;;;;;;;5076001;28;20440;-66